sensor_id;sensor_type;location;lat;lon;timestamp;temperature;humidity
52203;DHT22;38173;52.850;6.970;2023-04-24T00:01:18;9.70;99.90
52203;DHT22;38173;52.850;6.970;2023-04-24T00:03:44;9.70;99.90
52203;DHT22;38173;52.850;6.970;2023-04-24T00:06:10;9.60;99.90
52203;DHT22;38173;52.850;6.970;2023-04-24T00:08:35;9.60;99.90
52203;DHT22;38173;52.850;6.970;2023-04-24T00:11:01;9.60;99.90
52203;DHT22;38173;52.850;6.970;2023-04-24T00:13:27;9.50;99.90
52203;DHT22;38173;52.850;6.970;2023-04-24T00:15:54;9.50;99.90
52203;DHT22;38173;52.850;6.970;2023-04-24T00:18:19;9.50;99.90
52203;DHT22;38173;52.850;6.970;2023-04-24T00:20:45;9.50;99.90
52203;DHT22;38173;52.850;6.970;2023-04-24T00:23:12;9.40;99.90
52203;DHT22;38173;52.850;6.970;2023-04-24T00:25:37;9.40;99.90
52203;DHT22;38173;52.850;6.970;2023-04-24T00:28:03;9.40;99.90
52203;DHT22;38173;52.850;6.970;2023-04-24T00:30:28;9.40;99.90
52203;DHT22;38173;52.850;6.970;2023-04-24T00:32:54;9.40;99.90
52203;DHT22;38173;52.850;6.970;2023-04-24T00:35:19;9.40;99.90
52203;DHT22;38173;52.850;6.970;2023-04-24T00:37:45;9.30;99.90
52203;DHT22;38173;52.850;6.970;2023-04-24T00:40:14;9.30;99.90
52203;DHT22;38173;52.850;6.970;2023-04-24T00:42:40;9.30;99.90
52203;DHT22;38173;52.850;6.970;2023-04-24T00:45:06;9.30;99.90
52203;DHT22;38173;52.850;6.970;2023-04-24T00:47:35;9.30;99.90
52203;DHT22;38173;52.850;6.970;2023-04-24T00:50:02;9.30;99.90
52203;DHT22;38173;52.850;6.970;2023-04-24T00:52:27;9.20;99.90
52203;DHT22;38173;52.850;6.970;2023-04-24T00:54:53;9.30;99.90
52203;DHT22;38173;52.850;6.970;2023-04-24T00:57:19;9.20;99.90
52203;DHT22;38173;52.850;6.970;2023-04-24T00:59:45;9.20;99.90
52203;DHT22;38173;52.850;6.970;2023-04-24T01:02:11;9.20;99.90
52203;DHT22;38173;52.850;6.970;2023-04-24T01:04:37;9.20;99.90
52203;DHT22;38173;52.850;6.970;2023-04-24T01:07:03;9.20;99.90
52203;DHT22;38173;52.850;6.970;2023-04-24T01:09:29;9.20;99.90
52203;DHT22;38173;52.850;6.970;2023-04-24T01:11:55;9.20;99.90
52203;DHT22;38173;52.850;6.970;2023-04-24T01:14:21;9.20;99.90
52203;DHT22;38173;52.850;6.970;2023-04-24T01:16:47;9.20;99.90
52203;DHT22;38173;52.850;6.970;2023-04-24T01:19:13;9.20;99.90
52203;DHT22;38173;52.850;6.970;2023-04-24T01:21:40;9.10;99.90
52203;DHT22;38173;52.850;6.970;2023-04-24T01:24:07;9.20;99.90
52203;DHT22;38173;52.850;6.970;2023-04-24T01:26:33;9.10;99.90
52203;DHT22;38173;52.850;6.970;2023-04-24T01:28:59;9.10;99.90
52203;DHT22;38173;52.850;6.970;2023-04-24T01:31:25;9.10;99.90
52203;DHT22;38173;52.850;6.970;2023-04-24T01:33:51;9.10;99.90
52203;DHT22;38173;52.850;6.970;2023-04-24T01:36:17;9.10;99.90
52203;DHT22;38173;52.850;6.970;2023-04-24T01:38:43;9.10;99.90
52203;DHT22;38173;52.850;6.970;2023-04-24T01:41:09;9.10;99.90
52203;DHT22;38173;52.850;6.970;2023-04-24T01:43:35;9.10;99.90
52203;DHT22;38173;52.850;6.970;2023-04-24T01:46:00;9.10;99.90
52203;DHT22;38173;52.850;6.970;2023-04-24T01:48:26;9.10;99.90
52203;DHT22;38173;52.850;6.970;2023-04-24T01:50:52;9.10;99.90
52203;DHT22;38173;52.850;6.970;2023-04-24T01:53:18;9.10;99.90
52203;DHT22;38173;52.850;6.970;2023-04-24T01:55:43;9.10;99.90
52203;DHT22;38173;52.850;6.970;2023-04-24T01:58:09;9.10;99.90
52203;DHT22;38173;52.850;6.970;2023-04-24T02:00:35;9.10;99.90
52203;DHT22;38173;52.850;6.970;2023-04-24T02:03:00;9.10;99.90
52203;DHT22;38173;52.850;6.970;2023-04-24T02:05:27;9.10;99.90
52203;DHT22;38173;52.850;6.970;2023-04-24T02:07:52;9.10;99.90
52203;DHT22;38173;52.850;6.970;2023-04-24T02:10:18;9.10;99.90
52203;DHT22;38173;52.850;6.970;2023-04-24T02:12:44;9.00;99.90
52203;DHT22;38173;52.850;6.970;2023-04-24T02:15:09;9.10;99.90
52203;DHT22;38173;52.850;6.970;2023-04-24T02:17:35;9.10;99.90
52203;DHT22;38173;52.850;6.970;2023-04-24T02:20:01;9.10;99.90
52203;DHT22;38173;52.850;6.970;2023-04-24T02:22:27;9.10;99.90
52203;DHT22;38173;52.850;6.970;2023-04-24T02:24:52;9.10;99.90
52203;DHT22;38173;52.850;6.970;2023-04-24T02:27:18;9.00;99.90
52203;DHT22;38173;52.850;6.970;2023-04-24T02:29:44;9.00;99.90
52203;DHT22;38173;52.850;6.970;2023-04-24T02:32:10;9.00;99.90
52203;DHT22;38173;52.850;6.970;2023-04-24T02:34:40;9.10;99.90
52203;DHT22;38173;52.850;6.970;2023-04-24T02:37:06;9.00;99.90
52203;DHT22;38173;52.850;6.970;2023-04-24T02:39:31;9.10;99.90
52203;DHT22;38173;52.850;6.970;2023-04-24T02:41:57;9.00;99.90
52203;DHT22;38173;52.850;6.970;2023-04-24T02:44:23;9.10;99.90
52203;DHT22;38173;52.850;6.970;2023-04-24T02:46:49;9.00;99.90
52203;DHT22;38173;52.850;6.970;2023-04-24T02:49:14;9.00;99.90
52203;DHT22;38173;52.850;6.970;2023-04-24T02:51:40;9.00;99.90
52203;DHT22;38173;52.850;6.970;2023-04-24T02:54:07;9.00;99.90
52203;DHT22;38173;52.850;6.970;2023-04-24T02:56:33;9.00;99.90
52203;DHT22;38173;52.850;6.970;2023-04-24T02:58:59;9.00;99.90
52203;DHT22;38173;52.850;6.970;2023-04-24T03:01:24;9.00;99.90
52203;DHT22;38173;52.850;6.970;2023-04-24T03:03:50;9.00;99.90
52203;DHT22;38173;52.850;6.970;2023-04-24T03:06:16;9.00;99.90
52203;DHT22;38173;52.850;6.970;2023-04-24T03:08:41;9.00;99.90
52203;DHT22;38173;52.850;6.970;2023-04-24T03:11:07;9.00;99.90
52203;DHT22;38173;52.850;6.970;2023-04-24T03:13:32;9.00;99.90
52203;DHT22;38173;52.850;6.970;2023-04-24T03:15:58;8.90;99.90
52203;DHT22;38173;52.850;6.970;2023-04-24T03:18:24;8.90;99.90
52203;DHT22;38173;52.850;6.970;2023-04-24T03:20:49;8.90;99.90
52203;DHT22;38173;52.850;6.970;2023-04-24T03:23:15;8.90;99.90
52203;DHT22;38173;52.850;6.970;2023-04-24T03:25:41;8.90;99.90
52203;DHT22;38173;52.850;6.970;2023-04-24T03:28:08;8.90;99.90
52203;DHT22;38173;52.850;6.970;2023-04-24T03:30:33;8.90;99.90
52203;DHT22;38173;52.850;6.970;2023-04-24T03:33:00;8.80;99.90
52203;DHT22;38173;52.850;6.970;2023-04-24T03:35:25;8.80;99.90
52203;DHT22;38173;52.850;6.970;2023-04-24T03:37:51;8.80;99.90
52203;DHT22;38173;52.850;6.970;2023-04-24T03:40:16;8.80;99.90
52203;DHT22;38173;52.850;6.970;2023-04-24T03:42:42;8.80;99.90
52203;DHT22;38173;52.850;6.970;2023-04-24T03:45:11;8.80;99.90
52203;DHT22;38173;52.850;6.970;2023-04-24T03:47:36;8.80;99.90
52203;DHT22;38173;52.850;6.970;2023-04-24T03:50:02;8.80;99.90
52203;DHT22;38173;52.850;6.970;2023-04-24T03:52:27;8.80;99.90
52203;DHT22;38173;52.850;6.970;2023-04-24T03:54:53;8.80;99.90
52203;DHT22;38173;52.850;6.970;2023-04-24T03:57:19;8.80;99.90
52203;DHT22;38173;52.850;6.970;2023-04-24T03:59:44;8.80;99.90
52203;DHT22;38173;52.850;6.970;2023-04-24T04:02:10;8.80;99.90
52203;DHT22;38173;52.850;6.970;2023-04-24T04:04:35;8.80;99.90
52203;DHT22;38173;52.850;6.970;2023-04-24T04:07:01;8.70;99.90
52203;DHT22;38173;52.850;6.970;2023-04-24T04:09:28;8.80;99.90
52203;DHT22;38173;52.850;6.970;2023-04-24T04:11:54;8.70;99.90
52203;DHT22;38173;52.850;6.970;2023-04-24T04:14:21;8.70;99.90
52203;DHT22;38173;52.850;6.970;2023-04-24T04:16:46;8.80;99.90
52203;DHT22;38173;52.850;6.970;2023-04-24T04:19:12;8.80;99.90
52203;DHT22;38173;52.850;6.970;2023-04-24T04:21:38;8.80;99.90
52203;DHT22;38173;52.850;6.970;2023-04-24T04:24:04;8.80;99.90
52203;DHT22;38173;52.850;6.970;2023-04-24T04:26:30;8.80;99.90
52203;DHT22;38173;52.850;6.970;2023-04-24T04:28:58;8.80;99.90
52203;DHT22;38173;52.850;6.970;2023-04-24T04:31:26;8.80;99.90
52203;DHT22;38173;52.850;6.970;2023-04-24T04:33:52;8.80;99.90
52203;DHT22;38173;52.850;6.970;2023-04-24T04:36:18;8.80;99.90
52203;DHT22;38173;52.850;6.970;2023-04-24T04:38:43;8.80;99.90
52203;DHT22;38173;52.850;6.970;2023-04-24T04:41:10;8.80;99.90
52203;DHT22;38173;52.850;6.970;2023-04-24T04:43:36;8.80;99.90
52203;DHT22;38173;52.850;6.970;2023-04-24T04:46:01;8.80;99.90
52203;DHT22;38173;52.850;6.970;2023-04-24T04:48:29;8.80;99.90
52203;DHT22;38173;52.850;6.970;2023-04-24T04:50:57;8.80;99.90
52203;DHT22;38173;52.850;6.970;2023-04-24T04:53:23;8.80;99.90
52203;DHT22;38173;52.850;6.970;2023-04-24T04:55:49;8.80;99.90
52203;DHT22;38173;52.850;6.970;2023-04-24T04:58:17;8.80;99.90
52203;DHT22;38173;52.850;6.970;2023-04-24T05:00:43;8.80;99.90
52203;DHT22;38173;52.850;6.970;2023-04-24T05:03:11;8.80;99.90
52203;DHT22;38173;52.850;6.970;2023-04-24T05:05:37;8.80;99.90
52203;DHT22;38173;52.850;6.970;2023-04-24T05:08:09;8.80;99.90
52203;DHT22;38173;52.850;6.970;2023-04-24T05:10:34;8.80;99.90
52203;DHT22;38173;52.850;6.970;2023-04-24T05:13:07;8.80;99.90
52203;DHT22;38173;52.850;6.970;2023-04-24T05:15:33;8.70;99.90
52203;DHT22;38173;52.850;6.970;2023-04-24T05:17:59;8.80;99.90
52203;DHT22;38173;52.850;6.970;2023-04-24T05:20:25;8.80;99.90
52203;DHT22;38173;52.850;6.970;2023-04-24T05:22:51;8.80;99.90
52203;DHT22;38173;52.850;6.970;2023-04-24T05:25:19;8.80;99.90
52203;DHT22;38173;52.850;6.970;2023-04-24T05:27:45;8.90;99.90
52203;DHT22;38173;52.850;6.970;2023-04-24T05:30:11;8.80;99.90
52203;DHT22;38173;52.850;6.970;2023-04-24T05:32:37;8.90;99.90
52203;DHT22;38173;52.850;6.970;2023-04-24T05:35:03;8.90;99.90
52203;DHT22;38173;52.850;6.970;2023-04-24T05:37:29;8.90;99.90
52203;DHT22;38173;52.850;6.970;2023-04-24T05:39:54;9.00;99.90
52203;DHT22;38173;52.850;6.970;2023-04-24T05:42:20;9.00;99.90
52203;DHT22;38173;52.850;6.970;2023-04-24T05:44:48;9.00;99.90
52203;DHT22;38173;52.850;6.970;2023-04-24T05:47:14;9.00;99.90
52203;DHT22;38173;52.850;6.970;2023-04-24T05:49:39;9.10;99.90
52203;DHT22;38173;52.850;6.970;2023-04-24T05:52:05;9.10;99.90
52203;DHT22;38173;52.850;6.970;2023-04-24T05:54:34;9.10;99.90
52203;DHT22;38173;52.850;6.970;2023-04-24T05:56:59;9.20;99.90
52203;DHT22;38173;52.850;6.970;2023-04-24T05:59:28;9.20;99.90
52203;DHT22;38173;52.850;6.970;2023-04-24T06:01:53;9.20;99.90
52203;DHT22;38173;52.850;6.970;2023-04-24T06:04:24;9.20;99.90
52203;DHT22;38173;52.850;6.970;2023-04-24T06:06:57;9.20;99.90
52203;DHT22;38173;52.850;6.970;2023-04-24T06:09:22;9.20;99.90
52203;DHT22;38173;52.850;6.970;2023-04-24T06:11:49;9.20;99.90
52203;DHT22;38173;52.850;6.970;2023-04-24T06:14:14;9.20;99.90
52203;DHT22;38173;52.850;6.970;2023-04-24T06:16:41;9.30;99.90
52203;DHT22;38173;52.850;6.970;2023-04-24T06:19:10;9.20;99.90
52203;DHT22;38173;52.850;6.970;2023-04-24T06:21:41;9.10;99.90
52203;DHT22;38173;52.850;6.970;2023-04-24T06:24:07;9.10;99.90
52203;DHT22;38173;52.850;6.970;2023-04-24T06:26:32;9.20;99.90
52203;DHT22;38173;52.850;6.970;2023-04-24T06:28:58;9.10;99.90
52203;DHT22;38173;52.850;6.970;2023-04-24T06:31:25;9.10;99.90
52203;DHT22;38173;52.850;6.970;2023-04-24T06:33:51;9.10;99.90
52203;DHT22;38173;52.850;6.970;2023-04-24T06:36:16;9.10;99.90
52203;DHT22;38173;52.850;6.970;2023-04-24T06:38:42;9.10;99.90
52203;DHT22;38173;52.850;6.970;2023-04-24T06:41:09;9.10;99.90
52203;DHT22;38173;52.850;6.970;2023-04-24T06:43:35;9.20;99.90
52203;DHT22;38173;52.850;6.970;2023-04-24T06:46:00;9.10;99.90
52203;DHT22;38173;52.850;6.970;2023-04-24T06:48:28;9.20;99.90
52203;DHT22;38173;52.850;6.970;2023-04-24T06:50:55;9.10;99.90
52203;DHT22;38173;52.850;6.970;2023-04-24T06:53:20;9.20;99.90
52203;DHT22;38173;52.850;6.970;2023-04-24T06:55:46;9.20;99.90
52203;DHT22;38173;52.850;6.970;2023-04-24T06:58:12;9.20;99.90
52203;DHT22;38173;52.850;6.970;2023-04-24T07:00:37;9.20;99.90
52203;DHT22;38173;52.850;6.970;2023-04-24T07:03:03;9.20;99.90
52203;DHT22;38173;52.850;6.970;2023-04-24T07:05:32;9.10;99.90
52203;DHT22;38173;52.850;6.970;2023-04-24T07:08:00;9.20;99.90
52203;DHT22;38173;52.850;6.970;2023-04-24T07:10:26;9.10;99.90
52203;DHT22;38173;52.850;6.970;2023-04-24T07:12:54;9.10;99.90
52203;DHT22;38173;52.850;6.970;2023-04-24T07:15:21;9.10;99.90
52203;DHT22;38173;52.850;6.970;2023-04-24T07:17:47;9.10;99.90
52203;DHT22;38173;52.850;6.970;2023-04-24T07:20:13;9.10;99.90
52203;DHT22;38173;52.850;6.970;2023-04-24T07:22:39;9.10;99.90
52203;DHT22;38173;52.850;6.970;2023-04-24T07:25:13;9.10;99.90
52203;DHT22;38173;52.850;6.970;2023-04-24T07:27:39;9.10;99.90
52203;DHT22;38173;52.850;6.970;2023-04-24T07:30:07;9.10;99.90
52203;DHT22;38173;52.850;6.970;2023-04-24T07:32:33;9.10;99.90
52203;DHT22;38173;52.850;6.970;2023-04-24T07:34:58;9.20;99.90
52203;DHT22;38173;52.850;6.970;2023-04-24T07:37:24;9.20;99.90
52203;DHT22;38173;52.850;6.970;2023-04-24T07:39:50;9.20;99.90
52203;DHT22;38173;52.850;6.970;2023-04-24T07:42:18;9.20;99.90
52203;DHT22;38173;52.850;6.970;2023-04-24T07:44:43;9.30;99.90
52203;DHT22;38173;52.850;6.970;2023-04-24T07:47:13;9.30;99.90
52203;DHT22;38173;52.850;6.970;2023-04-24T07:49:44;9.30;99.90
52203;DHT22;38173;52.850;6.970;2023-04-24T07:52:09;9.30;99.90
52203;DHT22;38173;52.850;6.970;2023-04-24T07:54:35;9.40;99.90
52203;DHT22;38173;52.850;6.970;2023-04-24T07:57:02;9.40;99.90
52203;DHT22;38173;52.850;6.970;2023-04-24T07:59:28;9.40;99.90
52203;DHT22;38173;52.850;6.970;2023-04-24T08:01:55;9.50;99.90
52203;DHT22;38173;52.850;6.970;2023-04-24T08:04:20;9.50;99.90
52203;DHT22;38173;52.850;6.970;2023-04-24T08:06:51;9.50;99.90
52203;DHT22;38173;52.850;6.970;2023-04-24T08:09:17;9.60;99.90
52203;DHT22;38173;52.850;6.970;2023-04-24T08:11:43;9.60;99.90
52203;DHT22;38173;52.850;6.970;2023-04-24T08:14:12;9.70;99.90
52203;DHT22;38173;52.850;6.970;2023-04-24T08:16:41;9.70;99.90
52203;DHT22;38173;52.850;6.970;2023-04-24T08:19:07;9.70;99.90
52203;DHT22;38173;52.850;6.970;2023-04-24T08:21:32;9.70;99.90
52203;DHT22;38173;52.850;6.970;2023-04-24T08:23:58;9.70;99.90
52203;DHT22;38173;52.850;6.970;2023-04-24T08:26:45;9.70;99.90
52203;DHT22;38173;52.850;6.970;2023-04-24T08:29:10;9.70;99.90
52203;DHT22;38173;52.850;6.970;2023-04-24T08:31:36;9.70;99.90
52203;DHT22;38173;52.850;6.970;2023-04-24T08:34:01;9.70;99.90
52203;DHT22;38173;52.850;6.970;2023-04-24T08:36:27;9.70;99.90
52203;DHT22;38173;52.850;6.970;2023-04-24T08:38:56;9.70;99.90
52203;DHT22;38173;52.850;6.970;2023-04-24T08:41:42;9.70;99.90
52203;DHT22;38173;52.850;6.970;2023-04-24T08:44:09;9.70;99.90
52203;DHT22;38173;52.850;6.970;2023-04-24T08:46:35;9.70;99.90
52203;DHT22;38173;52.850;6.970;2023-04-24T08:49:01;9.70;99.90
52203;DHT22;38173;52.850;6.970;2023-04-24T08:51:27;9.80;99.90
52203;DHT22;38173;52.850;6.970;2023-04-24T08:53:56;9.70;99.90
52203;DHT22;38173;52.850;6.970;2023-04-24T08:56:25;9.70;99.90
52203;DHT22;38173;52.850;6.970;2023-04-24T08:58:51;9.60;99.90
52203;DHT22;38173;52.850;6.970;2023-04-24T09:01:18;9.60;99.90
52203;DHT22;38173;52.850;6.970;2023-04-24T09:03:54;9.60;99.90
52203;DHT22;38173;52.850;6.970;2023-04-24T09:06:23;9.50;99.90
52203;DHT22;38173;52.850;6.970;2023-04-24T09:08:53;9.50;99.90
52203;DHT22;38173;52.850;6.970;2023-04-24T09:11:22;9.40;99.90
52203;DHT22;38173;52.850;6.970;2023-04-24T09:13:49;9.40;99.90
52203;DHT22;38173;52.850;6.970;2023-04-24T09:16:24;9.40;99.90
52203;DHT22;38173;52.850;6.970;2023-04-24T09:18:50;9.30;99.90
52203;DHT22;38173;52.850;6.970;2023-04-24T09:21:16;9.30;99.90
52203;DHT22;38173;52.850;6.970;2023-04-24T09:23:42;9.20;99.90
52203;DHT22;38173;52.850;6.970;2023-04-24T09:26:08;9.20;99.90
52203;DHT22;38173;52.850;6.970;2023-04-24T09:28:35;9.30;99.90
52203;DHT22;38173;52.850;6.970;2023-04-24T09:31:05;9.30;99.90
52203;DHT22;38173;52.850;6.970;2023-04-24T09:33:31;9.30;99.90
52203;DHT22;38173;52.850;6.970;2023-04-24T09:35:57;9.30;99.90
52203;DHT22;38173;52.850;6.970;2023-04-24T09:38:35;9.40;99.90
52203;DHT22;38173;52.850;6.970;2023-04-24T09:41:07;9.40;99.90
52203;DHT22;38173;52.850;6.970;2023-04-24T09:43:34;9.30;99.90
52203;DHT22;38173;52.850;6.970;2023-04-24T09:46:04;9.20;99.90
52203;DHT22;38173;52.850;6.970;2023-04-24T09:48:31;9.10;99.90
52203;DHT22;38173;52.850;6.970;2023-04-24T09:51:02;9.00;99.90
52203;DHT22;38173;52.850;6.970;2023-04-24T09:53:29;8.90;99.90
52203;DHT22;38173;52.850;6.970;2023-04-24T09:55:54;8.90;99.90
52203;DHT22;38173;52.850;6.970;2023-04-24T09:58:24;8.80;99.90
52203;DHT22;38173;52.850;6.970;2023-04-24T10:00:53;8.70;99.90
52203;DHT22;38173;52.850;6.970;2023-04-24T10:03:20;8.70;99.90
52203;DHT22;38173;52.850;6.970;2023-04-24T10:05:48;8.70;99.90
52203;DHT22;38173;52.850;6.970;2023-04-24T10:08:14;8.70;99.90
52203;DHT22;38173;52.850;6.970;2023-04-24T10:10:43;8.70;99.90
52203;DHT22;38173;52.850;6.970;2023-04-24T10:13:12;8.70;99.90
52203;DHT22;38173;52.850;6.970;2023-04-24T10:15:38;8.70;99.90
52203;DHT22;38173;52.850;6.970;2023-04-24T10:18:09;8.80;99.90
52203;DHT22;38173;52.850;6.970;2023-04-24T10:20:35;8.70;99.90
52203;DHT22;38173;52.850;6.970;2023-04-24T10:23:05;8.70;99.90
52203;DHT22;38173;52.850;6.970;2023-04-24T10:25:37;8.60;99.90
52203;DHT22;38173;52.850;6.970;2023-04-24T10:28:03;8.60;99.90
52203;DHT22;38173;52.850;6.970;2023-04-24T10:30:29;8.60;99.90
52203;DHT22;38173;52.850;6.970;2023-04-24T10:32:59;8.60;99.90
52203;DHT22;38173;52.850;6.970;2023-04-24T10:35:25;8.60;99.90
52203;DHT22;38173;52.850;6.970;2023-04-24T10:38:08;8.70;99.90
52203;DHT22;38173;52.850;6.970;2023-04-24T10:40:34;8.70;99.90
52203;DHT22;38173;52.850;6.970;2023-04-24T10:43:07;8.70;99.90
52203;DHT22;38173;52.850;6.970;2023-04-24T10:45:38;8.70;99.90
52203;DHT22;38173;52.850;6.970;2023-04-24T10:48:05;8.70;99.90
52203;DHT22;38173;52.850;6.970;2023-04-24T10:50:42;8.70;99.90
52203;DHT22;38173;52.850;6.970;2023-04-24T10:53:18;8.60;99.90
52203;DHT22;38173;52.850;6.970;2023-04-24T10:55:45;8.70;99.90
52203;DHT22;38173;52.850;6.970;2023-04-24T10:58:11;8.70;99.90
52203;DHT22;38173;52.850;6.970;2023-04-24T11:00:40;8.80;99.90
52203;DHT22;38173;52.850;6.970;2023-04-24T11:03:23;8.80;99.90
52203;DHT22;38173;52.850;6.970;2023-04-24T11:06:06;8.80;99.90
52203;DHT22;38173;52.850;6.970;2023-04-24T11:08:39;8.80;99.90
52203;DHT22;38173;52.850;6.970;2023-04-24T11:16:21;8.80;99.90
52203;DHT22;38173;52.850;6.970;2023-04-24T11:18:51;8.80;99.90
52203;DHT22;38173;52.850;6.970;2023-04-24T11:21:20;8.80;99.90
52203;DHT22;38173;52.850;6.970;2023-04-24T11:23:46;8.70;99.90
52203;DHT22;38173;52.850;6.970;2023-04-24T11:26:12;8.70;99.90
52203;DHT22;38173;52.850;6.970;2023-04-24T11:28:48;8.70;99.90
52203;DHT22;38173;52.850;6.970;2023-04-24T11:34:05;8.70;99.90
52203;DHT22;38173;52.850;6.970;2023-04-24T11:36:31;8.80;99.90
52203;DHT22;38173;52.850;6.970;2023-04-24T11:38:57;8.90;99.90
52203;DHT22;38173;52.850;6.970;2023-04-24T11:41:25;8.90;99.90
52203;DHT22;38173;52.850;6.970;2023-04-24T11:43:51;9.10;99.90
52203;DHT22;38173;52.850;6.970;2023-04-24T11:46:17;9.10;99.90
52203;DHT22;38173;52.850;6.970;2023-04-24T11:48:46;9.20;99.90
52203;DHT22;38173;52.850;6.970;2023-04-24T11:51:12;9.30;99.90
52203;DHT22;38173;52.850;6.970;2023-04-24T11:53:38;9.30;99.90
52203;DHT22;38173;52.850;6.970;2023-04-24T11:56:04;9.20;99.90
52203;DHT22;38173;52.850;6.970;2023-04-24T11:58:34;9.20;99.90
52203;DHT22;38173;52.850;6.970;2023-04-24T12:01:00;9.20;99.90
52203;DHT22;38173;52.850;6.970;2023-04-24T12:03:26;9.30;99.90
52203;DHT22;38173;52.850;6.970;2023-04-24T12:05:52;9.30;99.90
52203;DHT22;38173;52.850;6.970;2023-04-24T12:08:27;9.30;99.90
52203;DHT22;38173;52.850;6.970;2023-04-24T12:10:53;9.40;99.90
52203;DHT22;38173;52.850;6.970;2023-04-24T12:13:19;9.40;99.90
52203;DHT22;38173;52.850;6.970;2023-04-24T12:15:45;9.40;99.90
52203;DHT22;38173;52.850;6.970;2023-04-24T12:18:14;9.50;99.90
52203;DHT22;38173;52.850;6.970;2023-04-24T12:20:42;9.60;99.90
52203;DHT22;38173;52.850;6.970;2023-04-24T12:23:08;9.60;99.90
52203;DHT22;38173;52.850;6.970;2023-04-24T12:25:33;9.60;99.90
52203;DHT22;38173;52.850;6.970;2023-04-24T12:30:28;9.50;99.90
52203;DHT22;38173;52.850;6.970;2023-04-24T12:32:56;9.40;99.90
52203;DHT22;38173;52.850;6.970;2023-04-24T12:35:23;9.40;99.90
52203;DHT22;38173;52.850;6.970;2023-04-24T12:37:49;9.30;99.90
52203;DHT22;38173;52.850;6.970;2023-04-24T12:40:16;9.20;99.90
52203;DHT22;38173;52.850;6.970;2023-04-24T12:42:42;9.10;99.90
52203;DHT22;38173;52.850;6.970;2023-04-24T12:45:08;9.10;99.90
52203;DHT22;38173;52.850;6.970;2023-04-24T12:47:35;9.10;99.90
52203;DHT22;38173;52.850;6.970;2023-04-24T12:50:01;9.20;99.90
52203;DHT22;38173;52.850;6.970;2023-04-24T12:52:28;9.20;99.90
52203;DHT22;38173;52.850;6.970;2023-04-24T12:54:54;9.30;99.90
52203;DHT22;38173;52.850;6.970;2023-04-24T12:57:21;9.40;99.90
52203;DHT22;38173;52.850;6.970;2023-04-24T12:59:46;9.40;99.90
52203;DHT22;38173;52.850;6.970;2023-04-24T13:02:12;9.50;99.90
52203;DHT22;38173;52.850;6.970;2023-04-24T13:04:38;9.50;99.90
52203;DHT22;38173;52.850;6.970;2023-04-24T13:07:04;9.60;99.90
52203;DHT22;38173;52.850;6.970;2023-04-24T13:09:30;9.70;99.90
52203;DHT22;38173;52.850;6.970;2023-04-24T13:11:56;9.80;99.90
52203;DHT22;38173;52.850;6.970;2023-04-24T13:14:22;9.80;99.90
52203;DHT22;38173;52.850;6.970;2023-04-24T13:16:48;9.90;99.90
52203;DHT22;38173;52.850;6.970;2023-04-24T13:19:13;9.80;99.90
52203;DHT22;38173;52.850;6.970;2023-04-24T13:21:39;9.80;99.90
52203;DHT22;38173;52.850;6.970;2023-04-24T13:24:05;9.80;99.90
52203;DHT22;38173;52.850;6.970;2023-04-24T13:26:31;9.80;99.90
52203;DHT22;38173;52.850;6.970;2023-04-24T13:28:56;9.80;99.90
52203;DHT22;38173;52.850;6.970;2023-04-24T13:31:23;9.70;99.90
52203;DHT22;38173;52.850;6.970;2023-04-24T13:33:49;9.70;99.90
52203;DHT22;38173;52.850;6.970;2023-04-24T13:36:14;9.60;99.90
52203;DHT22;38173;52.850;6.970;2023-04-24T13:38:42;9.60;99.90
52203;DHT22;38173;52.850;6.970;2023-04-24T13:41:07;9.40;99.90
52203;DHT22;38173;52.850;6.970;2023-04-24T13:43:33;9.30;99.90
52203;DHT22;38173;52.850;6.970;2023-04-24T13:45:58;9.20;99.90
52203;DHT22;38173;52.850;6.970;2023-04-24T13:48:27;9.10;99.90
52203;DHT22;38173;52.850;6.970;2023-04-24T13:50:53;9.00;99.90
52203;DHT22;38173;52.850;6.970;2023-04-24T13:53:18;9.00;99.90
52203;DHT22;38173;52.850;6.970;2023-04-24T13:55:44;9.10;99.90
52203;DHT22;38173;52.850;6.970;2023-04-24T13:58:10;9.20;99.90
52203;DHT22;38173;52.850;6.970;2023-04-24T14:00:35;9.30;99.90
52203;DHT22;38173;52.850;6.970;2023-04-24T14:03:01;9.30;99.90
52203;DHT22;38173;52.850;6.970;2023-04-24T14:05:27;9.30;99.90
52203;DHT22;38173;52.850;6.970;2023-04-24T14:07:53;9.40;99.90
52203;DHT22;38173;52.850;6.970;2023-04-24T14:10:18;9.30;99.90
52203;DHT22;38173;52.850;6.970;2023-04-24T14:12:44;9.20;99.90
52203;DHT22;38173;52.850;6.970;2023-04-24T14:15:10;9.10;99.90
52203;DHT22;38173;52.850;6.970;2023-04-24T14:17:37;9.00;99.90
52203;DHT22;38173;52.850;6.970;2023-04-24T14:20:03;9.00;99.90
52203;DHT22;38173;52.850;6.970;2023-04-24T14:22:29;8.90;99.90
52203;DHT22;38173;52.850;6.970;2023-04-24T14:24:55;8.90;99.90
52203;DHT22;38173;52.850;6.970;2023-04-24T14:27:24;8.80;99.90
52203;DHT22;38173;52.850;6.970;2023-04-24T14:29:50;8.80;99.90
52203;DHT22;38173;52.850;6.970;2023-04-24T14:32:15;8.70;99.90
52203;DHT22;38173;52.850;6.970;2023-04-24T14:34:41;8.80;99.90
52203;DHT22;38173;52.850;6.970;2023-04-24T14:37:07;8.90;99.90
52203;DHT22;38173;52.850;6.970;2023-04-24T14:39:32;8.90;99.90
52203;DHT22;38173;52.850;6.970;2023-04-24T14:41:58;8.90;99.90
52203;DHT22;38173;52.850;6.970;2023-04-24T14:44:24;8.90;99.90
52203;DHT22;38173;52.850;6.970;2023-04-24T14:46:50;8.90;99.90
52203;DHT22;38173;52.850;6.970;2023-04-24T14:49:15;8.90;99.90
52203;DHT22;38173;52.850;6.970;2023-04-24T14:51:41;9.00;99.90
52203;DHT22;38173;52.850;6.970;2023-04-24T14:54:09;9.00;99.90
52203;DHT22;38173;52.850;6.970;2023-04-24T14:56:38;9.00;99.90
52203;DHT22;38173;52.850;6.970;2023-04-24T14:59:07;9.00;99.90
52203;DHT22;38173;52.850;6.970;2023-04-24T15:01:33;8.90;99.90
52203;DHT22;38173;52.850;6.970;2023-04-24T15:03:59;8.90;99.90
52203;DHT22;38173;52.850;6.970;2023-04-24T15:06:25;8.90;99.90
52203;DHT22;38173;52.850;6.970;2023-04-24T15:08:50;8.90;99.90
52203;DHT22;38173;52.850;6.970;2023-04-24T15:11:18;8.90;99.90
52203;DHT22;38173;52.850;6.970;2023-04-24T15:13:45;8.90;99.90
52203;DHT22;38173;52.850;6.970;2023-04-24T15:16:11;8.90;99.90
52203;DHT22;38173;52.850;6.970;2023-04-24T15:18:36;8.90;99.90
52203;DHT22;38173;52.850;6.970;2023-04-24T15:21:02;8.90;99.90
52203;DHT22;38173;52.850;6.970;2023-04-24T15:23:28;8.90;99.90
52203;DHT22;38173;52.850;6.970;2023-04-24T15:25:53;8.90;99.90
52203;DHT22;38173;52.850;6.970;2023-04-24T15:28:22;9.00;99.90
52203;DHT22;38173;52.850;6.970;2023-04-24T15:30:49;9.20;99.90
52203;DHT22;38173;52.850;6.970;2023-04-24T15:33:15;9.30;99.90
52203;DHT22;38173;52.850;6.970;2023-04-24T15:35:41;9.40;99.90
52203;DHT22;38173;52.850;6.970;2023-04-24T15:38:06;9.50;99.90
52203;DHT22;38173;52.850;6.970;2023-04-24T15:40:32;9.50;99.90
52203;DHT22;38173;52.850;6.970;2023-04-24T15:42:58;9.50;99.90
52203;DHT22;38173;52.850;6.970;2023-04-24T15:45:24;9.40;99.90
52203;DHT22;38173;52.850;6.970;2023-04-24T15:47:50;9.30;99.90
52203;DHT22;38173;52.850;6.970;2023-04-24T15:50:16;9.30;99.90
52203;DHT22;38173;52.850;6.970;2023-04-24T15:52:44;9.20;99.90